Terminal Aerodrome Forecast
Issued by NWS

Home | Current Version | Previous Version | Text Only | Print | Product List | Glossary On
Versions: 1 2 3 4 5 6 7 8 9 10 11 12 13 14 15 16 17 18 19 20 21 22 23 24 25
000
FTUS41 KGYX 241734
TAFLEB
TAF
KLEB 241734Z 2418/2518 33007KT P6SM OVC015
     FM242200 33008KT P6SM SCT015 BKN035
     FM250500 VRB03KT P6SM SCT035 BKN100
     FM250900 00000KT 5SM BR SCT005 SCT035
     FM251200 27004KT P6SM SCT045=

USA.gov is the U.S. government's official web portal to all federal, state and local government web resources and services.